TimeEST,TemperatureF,Dew PointF,Humidity,Sea Level PressureIn,VisibilityMPH,Wind Direction,Wind SpeedMPH,Gust SpeedMPH,PrecipitationIn,Events,Conditions,WindDirDegrees,DateUTC
1:22 AM,46.4,44.6,93,30.08,1.8,Calm,Calm,-,N/A,,Clear,0,2012-11-21 06:22:00
1:27 AM,46.4,44.6,93,30.07,10.0,Calm,Calm,-,N/A,,Clear,0,2012-11-21 06:27:00
1:53 AM,46.0,44.1,93,30.08,10.0,Calm,Calm,-,N/A,,Clear,0,2012-11-21 06:53:00
2:53 AM,45.0,43.0,93,30.07,10.0,Calm,Calm,-,N/A,,Clear,0,2012-11-21 07:53:00
3:53 AM,44.1,42.1,93,30.07,9.0,Calm,Calm,-,N/A,,Scattered Clouds,0,2012-11-21 08:53:00
4:53 AM,43.0,41.0,93,30.08,9.0,Calm,Calm,-,N/A,,Clear,0,2012-11-21 09:53:00
5:53 AM,44.1,42.1,93,30.09,9.0,Calm,Calm,-,N/A,,Clear,0,2012-11-21 10:53:00
6:53 AM,42.1,41.0,96,30.10,8.0,Calm,Calm,-,N/A,Fog,Shallow Fog,0,2012-11-21 11:53:00
7:53 AM,46.0,45.0,96,30.11,7.0,Calm,Calm,-,N/A,,Partly Cloudy,0,2012-11-21 12:53:00
8:53 AM,52.0,48.0,86,30.12,10.0,North,5.8,-,N/A,,Partly Cloudy,10,2012-11-21 13:53:00
9:53 AM,57.9,48.0,70,30.14,10.0,North,9.2,-,N/A,,Partly Cloudy,10,2012-11-21 14:53:00
10:53 AM,61.0,46.0,58,30.13,10.0,North,5.8,-,N/A,,Partly Cloudy,10,2012-11-21 15:53:00
11:53 AM,64.9,44.1,47,30.11,10.0,North,8.1,16.1,N/A,,Clear,10,2012-11-21 16:53:00
12:53 PM,66.0,43.0,43,30.09,10.0,North,12.7,-,N/A,,Clear,10,2012-11-21 17:53:00
2:53 PM,68.0,41.0,37,30.06,10.0,North,10.4,-,N/A,,Partly Cloudy,10,2012-11-21 19:53:00
3:53 PM,66.9,41.0,39,30.06,10.0,North,6.9,-,N/A,,Partly Cloudy,360,2012-11-21 20:53:00
4:53 PM,64.0,39.9,41,30.07,10.0,North,6.9,-,N/A,,Partly Cloudy,360,2012-11-21 21:53:00
5:53 PM,57.0,41.0,55,30.09,10.0,North,3.5,-,N/A,,Partly Cloudy,350,2012-11-21 22:53:00
7:53 PM,51.1,42.1,71,30.12,10.0,North,3.5,-,N/A,,Clear,350,2012-11-22 00:53:00
8:53 PM,50.0,42.1,74,30.12,10.0,North,4.6,-,N/A,,Clear,10,2012-11-22 01:53:00
9:53 PM,48.9,41.0,74,30.13,10.0,NNE,5.8,-,N/A,,Clear,20,2012-11-22 02:53:00
10:53 PM,46.0,41.0,83,30.14,10.0,NNW,4.6,-,N/A,,Clear,340,2012-11-22 03:53:00
11:53 PM,44.1,39.9,85,30.13,10.0,Calm,Calm,-,N/A,,Clear,0,2012-11-22 04:53:00